Time;durP1;ratioP1;P1;durP2;ratioP2;P2;SDS_P1;SDS_P2;PMS_P1;PMS_P2;Temp;Humidity;BMP_temperature;BMP_pressure;BME280_temperature;BME280_humidity;BME280_pressure;Samples;Min_cycle;Max_cycle;Signal;HPM_P1;HPM_P2
2022/08/05 00:00:02;;;;;;;;;;;22.50;99.90;;;;;;5090803;28;19912;-77
2022/08/05 00:02:28;;;;;;;;;;;22.50;99.90;;;;;;5091517;28;19943;-76
2022/08/05 00:04:53;;;;;;;;;;;22.50;99.90;;;;;;5091526;28;20024;-77
2022/08/05 00:07:19;;;;;;;;;;;22.50;99.90;;;;;;5091446;28;19912;-77
2022/08/05 00:09:45;;;;;;;;;;;22.50;99.90;;;;;;5091352;28;20283;-77
2022/08/05 00:12:10;;;;;;;;;;;22.50;99.90;;;;;;5092014;28;19908;-76
2022/08/05 00:14:36;;;;;;;;;;;22.40;99.90;;;;;;5091598;28;19908;-76
2022/08/05 00:17:01;;;;;;;;;;;22.40;99.90;;;;;;5091005;28;19916;-76
2022/08/05 00:19:27;;;;;;;;;;;22.40;99.90;;;;;;5091271;28;19955;-76
2022/08/05 00:21:53;;;;;;;;;;;22.30;99.90;;;;;;5091457;28;19935;-76
2022/08/05 00:24:18;;;;;;;;;;;22.30;99.90;;;;;;5091313;28;19963;-76
2022/08/05 00:26:44;;;;;;;;;;;22.30;99.90;;;;;;5091040;28;19908;-76
2022/08/05 00:29:09;;;;;;;;;;;22.30;99.90;;;;;;5091147;28;19961;-76
2022/08/05 00:31:35;;;;;;;;;;;22.30;99.90;;;;;;5091306;28;19920;-76
2022/08/05 00:34:01;;;;;;;;;;;22.20;99.90;;;;;;5091167;28;19915;-75
2022/08/05 00:36:26;;;;;;;;;;;22.20;99.90;;;;;;5090789;28;19908;-76
2022/08/05 00:38:52;;;;;;;;;;;22.20;99.90;;;;;;5091183;28;19908;-76
2022/08/05 00:41:31;;;;;;;;;;;22.20;99.90;;;;;;5090990;28;20273;-76
2022/08/05 00:43:57;;;;;;;;;;;22.20;99.90;;;;;;5091060;28;20361;-76
2022/08/05 00:46:23;;;;;;;;;;;22.10;99.90;;;;;;5090824;28;19945;-76
2022/08/05 00:48:49;;;;;;;;;;;22.10;99.90;;;;;;5091131;28;19965;-77
2022/08/05 00:51:14;;;;;;;;;;;22.10;99.90;;;;;;5091016;28;19943;-76
2022/08/05 00:53:40;;;;;;;;;;;22.10;99.90;;;;;;5090933;28;20448;-76
2022/08/05 00:56:06;;;;;;;;;;;22.10;99.90;;;;;;5090597;28;20016;-76
2022/08/05 00:58:32;;;;;;;;;;;22.00;99.90;;;;;;5090748;28;19912;-76
2022/08/05 01:00:57;;;;;;;;;;;21.90;99.90;;;;;;5090922;28;20355;-77
2022/08/05 01:03:24;;;;;;;;;;;21.90;99.90;;;;;;5090899;28;19912;-76
2022/08/05 01:05:50;;;;;;;;;;;21.70;99.90;;;;;;5090459;28;20378;-76
2022/08/05 01:08:16;;;;;;;;;;;21.60;99.90;;;;;;5090905;28;19912;-76
2022/08/05 01:10:53;;;;;;;;;;;21.60;99.90;;;;;;5091244;28;20355;-76
2022/08/05 01:13:28;;;;;;;;;;;21.60;99.90;;;;;;5094837;28;19913;-76
2022/08/05 01:15:57;;;;;;;;;;;21.60;99.90;;;;;;5094474;28;20003;-76
2022/08/05 01:18:24;;;;;;;;;;;21.60;99.90;;;;;;5094760;28;20275;-77
2022/08/05 01:21:06;;;;;;;;;;;21.50;99.90;;;;;;5094706;28;20299;-76
2022/08/05 01:23:49;;;;;;;;;;;21.50;99.90;;;;;;5094599;28;19913;-77
2022/08/05 01:26:28;;;;;;;;;;;21.50;99.90;;;;;;5094407;28;19908;-75
2022/08/05 01:29:03;;;;;;;;;;;21.50;99.90;;;;;;5094553;28;19954;-76
2022/08/05 01:31:32;;;;;;;;;;;21.40;99.90;;;;;;5094476;28;19908;-76
2022/08/05 01:34:01;;;;;;;;;;;21.40;99.90;;;;;;5094435;28;20263;-76
2022/08/05 01:36:29;;;;;;;;;;;21.40;99.90;;;;;;5094079;28;19916;-76
2022/08/05 01:38:56;;;;;;;;;;;21.30;99.90;;;;;;5094293;28;19935;-76
2022/08/05 01:41:26;;;;;;;;;;;21.40;99.90;;;;;;5094300;28;19916;-76
2022/08/05 01:43:52;;;;;;;;;;;21.40;99.90;;;;;;5094457;28;19908;-77
2022/08/05 01:46:19;;;;;;;;;;;21.40;99.90;;;;;;5094025;28;20291;-75
2022/08/05 01:48:45;;;;;;;;;;;21.30;99.90;;;;;;5094094;28;19909;-76
2022/08/05 01:51:11;;;;;;;;;;;21.30;99.90;;;;;;5094187;28;20377;-76
2022/08/05 01:53:37;;;;;;;;;;;21.30;99.90;;;;;;5093967;28;19924;-76
2022/08/05 01:56:04;;;;;;;;;;;21.30;99.90;;;;;;5093880;28;20360;-76
2022/08/05 01:58:30;;;;;;;;;;;21.20;99.90;;;;;;5093878;28;19908;-75
2022/08/05 02:00:57;;;;;;;;;;;21.20;99.90;;;;;;5094057;28;19908;-76
2022/08/05 02:03:34;;;;;;;;;;;21.10;99.90;;;;;;5093809;28;19919;-76
2022/08/05 02:06:07;;;;;;;;;;;21.10;99.90;;;;;;5093630;28;19908;-76
2022/08/05 02:08:33;;;;;;;;;;;20.90;99.90;;;;;;5093678;28;19908;-77
2022/08/05 02:11:05;;;;;;;;;;;20.80;99.90;;;;;;5093796;28;20311;-76
2022/08/05 02:13:34;;;;;;;;;;;20.80;99.90;;;;;;5093616;28;19915;-76
2022/08/05 02:15:59;;;;;;;;;;;20.70;99.90;;;;;;5093531;28;20334;-76
2022/08/05 02:18:29;;;;;;;;;;;20.80;99.90;;;;;;5093548;28;19919;-77
2022/08/05 02:20:55;;;;;;;;;;;20.80;99.90;;;;;;5093639;28;19912;-77
2022/08/05 02:23:22;;;;;;;;;;;20.70;99.90;;;;;;5092690;28;19962;-76
2022/08/05 02:25:49;;;;;;;;;;;20.70;99.90;;;;;;5093326;28;19908;-77
2022/08/05 02:28:18;;;;;;;;;;;20.70;99.90;;;;;;5093144;28;19951;-76
2022/08/05 02:30:45;;;;;;;;;;;20.60;99.90;;;;;;5093476;28;20003;-76
2022/08/05 02:33:14;;;;;;;;;;;20.70;99.90;;;;;;5093286;28;19951;-76
2022/08/05 02:35:40;;;;;;;;;;;20.60;99.90;;;;;;5093145;28;19915;-77
2022/08/05 02:38:07;;;;;;;;;;;20.50;99.90;;;;;;5093192;28;19908;-77
2022/08/05 02:40:33;;;;;;;;;;;20.50;99.90;;;;;;5093012;28;20452;-76
2022/08/05 02:43:00;;;;;;;;;;;20.50;99.90;;;;;;5093137;28;19967;-76
2022/08/05 02:45:26;;;;;;;;;;;20.50;99.90;;;;;;5093044;28;19919;-76
2022/08/05 02:47:53;;;;;;;;;;;20.40;99.90;;;;;;5092932;28;19922;-76
2022/08/05 02:50:21;;;;;;;;;;;20.20;99.90;;;;;;5093000;28;19941;-76
2022/08/05 02:52:46;;;;;;;;;;;20.00;99.90;;;;;;5092988;28;20468;-76
2022/08/05 02:55:12;;;;;;;;;;;19.90;99.90;;;;;;5092723;28;19916;-76
2022/08/05 02:57:38;;;;;;;;;;;20.00;99.90;;;;;;5092688;28;20325;-76
2022/08/05 03:00:05;;;;;;;;;;;20.00;99.90;;;;;;5092774;28;19955;-76
2022/08/05 03:02:33;;;;;;;;;;;20.00;99.90;;;;;;5093119;28;19912;-75
2022/08/05 03:04:59;;;;;;;;;;;20.00;99.90;;;;;;5093634;28;20361;-75
2022/08/05 03:07:26;;;;;;;;;;;19.90;99.90;;;;;;5092607;28;19912;-76
2022/08/05 03:09:52;;;;;;;;;;;19.90;99.90;;;;;;5092450;28;20390;-76
2022/08/05 03:12:30;;;;;;;;;;;20.00;99.90;;;;;;5092707;28;19908;-76
2022/08/05 03:14:55;;;;;;;;;;;20.00;99.90;;;;;;5092532;28;19911;-75
2022/08/05 03:17:21;;;;;;;;;;;19.90;99.90;;;;;;5092378;28;20328;-76
2022/08/05 03:19:46;;;;;;;;;;;19.80;99.90;;;;;;5092315;28;19915;-76
2022/08/05 03:22:13;;;;;;;;;;;19.70;99.90;;;;;;5092395;28;19919;-76
2022/08/05 03:24:39;;;;;;;;;;;19.70;99.90;;;;;;5092367;28;20252;-76
2022/08/05 03:27:05;;;;;;;;;;;19.70;99.90;;;;;;5092136;28;20007;-76
2022/08/05 03:29:30;;;;;;;;;;;19.70;99.90;;;;;;5092357;28;20355;-76
2022/08/05 03:31:56;;;;;;;;;;;19.80;99.90;;;;;;5092428;28;20391;-75
2022/08/05 03:34:21;;;;;;;;;;;19.80;99.90;;;;;;5092200;28;19912;-76
2022/08/05 03:36:47;;;;;;;;;;;19.80;99.90;;;;;;5091935;28;19908;-76
2022/08/05 03:39:13;;;;;;;;;;;19.70;99.90;;;;;;5092019;28;19908;-76
2022/08/05 03:41:38;;;;;;;;;;;19.80;99.90;;;;;;5091905;28;19908;-76
2022/08/05 03:44:04;;;;;;;;;;;19.80;99.90;;;;;;5092063;28;19914;-76
2022/08/05 03:46:29;;;;;;;;;;;19.90;99.90;;;;;;5091690;28;19915;-76
2022/08/05 03:48:55;;;;;;;;;;;19.90;99.90;;;;;;5091903;28;19908;-76
2022/08/05 03:51:27;;;;;;;;;;;20.00;99.90;;;;;;5091775;28;19947;-75
2022/08/05 03:54:05;;;;;;;;;;;20.10;99.90;;;;;;5091741;28;19916;-75
2022/08/05 03:56:41;;;;;;;;;;;20.10;99.90;;;;;;5091500;28;20360;-76
2022/08/05 03:59:09;;;;;;;;;;;20.10;99.90;;;;;;5088261;28;19912;-76
2022/08/05 04:01:36;;;;;;;;;;;20.20;99.90;;;;;;5082999;28;19989;-76
2022/08/05 04:04:03;;;;;;;;;;;20.20;99.90;;;;;;5091512;28;19962;-76
2022/08/05 04:06:29;;;;;;;;;;;20.30;99.90;;;;;;5082918;28;19908;-76
2022/08/05 04:08:55;;;;;;;;;;;20.30;99.90;;;;;;5091607;28;19970;-75
2022/08/05 04:11:20;;;;;;;;;;;20.40;99.90;;;;;;5091864;28;19914;-76
2022/08/05 04:13:46;;;;;;;;;;;20.40;99.90;;;;;;5091827;28;19999;-76
2022/08/05 04:16:12;;;;;;;;;;;20.40;99.90;;;;;;5091497;28;19908;-76
2022/08/05 04:18:38;;;;;;;;;;;20.50;99.90;;;;;;5091351;28;19912;-76
2022/08/05 04:21:04;;;;;;;;;;;20.60;99.90;;;;;;5091728;28;19915;-76
2022/08/05 04:23:30;;;;;;;;;;;20.50;99.90;;;;;;5091450;28;20330;-76
2022/08/05 04:25:56;;;;;;;;;;;20.60;99.90;;;;;;5091460;28;20000;-77
2022/08/05 04:28:21;;;;;;;;;;;20.50;99.90;;;;;;5091427;28;19908;-76
2022/08/05 04:30:47;;;;;;;;;;;20.60;99.90;;;;;;5091628;28;19909;-75
2022/08/05 04:33:13;;;;;;;;;;;20.50;99.90;;;;;;5091416;28;19912;-76
2022/08/05 04:35:39;;;;;;;;;;;20.50;99.90;;;;;;5091245;28;19914;-77
2022/08/05 04:38:05;;;;;;;;;;;20.50;99.90;;;;;;5091170;28;19969;-76
2022/08/05 04:40:34;;;;;;;;;;;20.60;99.90;;;;;;5091375;28;20428;-76
2022/08/05 04:42:59;;;;;;;;;;;20.60;99.90;;;;;;5091190;28;19912;-76
2022/08/05 04:45:25;;;;;;;;;;;20.50;99.90;;;;;;5091108;28;20498;-76
2022/08/05 04:47:51;;;;;;;;;;;20.50;99.90;;;;;;5091339;28;19912;-77
2022/08/05 04:50:18;;;;;;;;;;;20.40;99.90;;;;;;5091222;28;19931;-76
2022/08/05 04:52:43;;;;;;;;;;;20.30;99.90;;;;;;5090960;28;19920;-76
2022/08/05 04:55:09;;;;;;;;;;;20.30;99.90;;;;;;5090968;28;20290;-77
2022/08/05 04:57:35;;;;;;;;;;;20.30;99.90;;;;;;5090791;28;20409;-76
2022/08/05 05:00:01;;;;;;;;;;;20.30;99.90;;;;;;5090857;28;19912;-76
2022/08/05 05:02:26;;;;;;;;;;;20.30;99.90;;;;;;5090873;28;19919;-77
2022/08/05 05:04:52;;;;;;;;;;;20.30;99.90;;;;;;5090839;28;19930;-76
2022/08/05 05:07:18;;;;;;;;;;;20.40;99.90;;;;;;5090716;28;19916;-76
2022/08/05 05:09:43;;;;;;;;;;;20.50;99.90;;;;;;5090757;28;19999;-75
2022/08/05 05:12:09;;;;;;;;;;;20.50;99.90;;;;;;5090877;28;19915;-76
2022/08/05 05:14:35;;;;;;;;;;;20.70;99.90;;;;;;5090732;28;20329;-76
2022/08/05 05:17:01;;;;;;;;;;;20.70;99.90;;;;;;5090675;28;19908;-77
2022/08/05 05:19:26;;;;;;;;;;;20.70;99.90;;;;;;5090724;28;19951;-77
2022/08/05 05:21:52;;;;;;;;;;;20.70;99.90;;;;;;5090738;28;19963;-76
2022/08/05 05:24:20;;;;;;;;;;;20.80;99.90;;;;;;5090562;28;19914;-76
2022/08/05 05:26:46;;;;;;;;;;;20.80;99.90;;;;;;5090332;28;19908;-76
2022/08/05 05:29:11;;;;;;;;;;;20.80;99.90;;;;;;5090620;28;19934;-76
2022/08/05 05:31:37;;;;;;;;;;;20.90;99.90;;;;;;5090633;28;19909;-77
2022/08/05 05:34:03;;;;;;;;;;;20.90;99.90;;;;;;5088048;28;19913;-77
2022/08/05 05:36:29;;;;;;;;;;;21.00;99.90;;;;;;5089992;28;19908;-77
2022/08/05 05:38:55;;;;;;;;;;;21.10;99.90;;;;;;5082611;28;19958;-76
2022/08/05 05:41:21;;;;;;;;;;;21.10;99.90;;;;;;5090488;28;19915;-74
2022/08/05 05:43:47;;;;;;;;;;;21.10;99.90;;;;;;5090579;28;19912;-75
2022/08/05 05:46:12;;;;;;;;;;;21.10;99.90;;;;;;5090365;28;19915;-75
2022/08/05 05:48:40;;;;;;;;;;;21.00;99.90;;;;;;5090458;28;19908;-76
2022/08/05 05:51:07;;;;;;;;;;;21.00;99.90;;;;;;5090352;28;19908;-76
2022/08/05 05:53:33;;;;;;;;;;;21.10;99.90;;;;;;5090381;28;19916;-76
2022/08/05 05:55:58;;;;;;;;;;;21.10;99.90;;;;;;5090560;28;20007;-76
2022/08/05 05:58:24;;;;;;;;;;;21.10;99.90;;;;;;5091766;28;19939;-76
2022/08/05 06:00:49;;;;;;;;;;;21.10;99.90;;;;;;5094140;28;19947;-76
2022/08/05 06:03:15;;;;;;;;;;;21.00;99.90;;;;;;5093952;28;20656;-76
2022/08/05 06:05:41;;;;;;;;;;;21.10;99.90;;;;;;5093840;28;20313;-75
2022/08/05 06:08:06;;;;;;;;;;;21.20;99.90;;;;;;5093718;28;19908;-76
2022/08/05 06:10:32;;;;;;;;;;;21.20;99.90;;;;;;5094053;28;19912;-78
2022/08/05 06:12:58;;;;;;;;;;;21.20;99.90;;;;;;5093758;28;19943;-75
2022/08/05 06:15:24;;;;;;;;;;;21.30;99.90;;;;;;5093719;28;19915;-76
2022/08/05 06:17:50;;;;;;;;;;;21.40;99.90;;;;;;5093465;28;19995;-76
2022/08/05 06:20:16;;;;;;;;;;;21.50;99.90;;;;;;5093670;28;19908;-76
2022/08/05 06:22:41;;;;;;;;;;;21.60;99.90;;;;;;5093574;28;19919;-76
2022/08/05 06:25:07;;;;;;;;;;;21.60;99.90;;;;;;5093460;28;19915;-76
2022/08/05 06:27:33;;;;;;;;;;;21.70;99.90;;;;;;5093265;28;19969;-76
2022/08/05 06:29:59;;;;;;;;;;;21.60;99.90;;;;;;5093188;28;19933;-76
2022/08/05 06:32:24;;;;;;;;;;;21.50;99.90;;;;;;5093237;28;20010;-76
2022/08/05 06:34:50;;;;;;;;;;;21.40;99.90;;;;;;5093391;28;19908;-77
2022/08/05 06:37:16;;;;;;;;;;;21.40;99.90;;;;;;5092971;28;19908;-76
2022/08/05 06:39:41;;;;;;;;;;;21.30;99.90;;;;;;5092869;28;19915;-76
2022/08/05 06:42:07;;;;;;;;;;;21.30;99.90;;;;;;5092987;28;19916;-76
2022/08/05 06:44:33;;;;;;;;;;;21.30;99.90;;;;;;5092861;28;19974;-76
2022/08/05 06:46:59;;;;;;;;;;;21.20;99.90;;;;;;5092813;28;19909;-75
2022/08/05 06:49:25;;;;;;;;;;;21.20;99.90;;;;;;5092766;28;20011;-77
2022/08/05 06:51:51;;;;;;;;;;;21.20;99.90;;;;;;5092828;28;19914;-75
2022/08/05 06:54:17;;;;;;;;;;;21.10;99.90;;;;;;5092763;28;19998;-75
2022/08/05 06:56:42;;;;;;;;;;;21.00;99.90;;;;;;5092432;28;19913;-75
2022/08/05 06:59:09;;;;;;;;;;;20.90;99.90;;;;;;5092720;28;20468;-75
2022/08/05 07:01:34;;;;;;;;;;;21.00;99.90;;;;;;5092543;28;20311;-76
2022/08/05 07:04:00;;;;;;;;;;;21.00;99.90;;;;;;5092669;28;19915;-76
2022/08/05 07:06:26;;;;;;;;;;;21.10;99.90;;;;;;5090469;28;19919;-76
2022/08/05 07:08:51;;;;;;;;;;;21.20;99.90;;;;;;5086599;28;20041;-75
2022/08/05 07:11:17;;;;;;;;;;;21.20;99.90;;;;;;5080162;28;19916;-76
2022/08/05 07:19:11;;;;;;;;;;;21.40;99.90;;;;;;5093993;28;19916;-76
2022/08/05 07:21:37;;;;;;;;;;;21.40;99.90;;;;;;5092200;28;19908;-75
2022/08/05 07:24:02;;;;;;;;;;;21.40;99.90;;;;;;5087313;28;19923;-74
2022/08/05 07:26:28;;;;;;;;;;;21.30;99.90;;;;;;5080796;28;19908;-74
2022/08/05 07:28:54;;;;;;;;;;;21.20;99.90;;;;;;5091897;28;19916;-75
2022/08/05 07:31:19;;;;;;;;;;;21.00;99.90;;;;;;5091706;28;20322;-76
2022/08/05 07:33:45;;;;;;;;;;;20.80;99.90;;;;;;5091728;28;19912;-75
2022/08/05 07:36:10;;;;;;;;;;;20.70;99.90;;;;;;5085874;28;20364;-76
2022/08/05 07:38:36;;;;;;;;;;;20.60;99.90;;;;;;5070982;28;19961;-76
2022/08/05 07:41:03;;;;;;;;;;;20.50;99.90;;;;;;5071420;28;19912;-74
2022/08/05 07:43:29;;;;;;;;;;;20.50;99.90;;;;;;5071386;28;19967;-76
2022/08/05 07:45:55;;;;;;;;;;;20.30;99.90;;;;;;5071102;28;19912;-75
2022/08/05 07:48:20;;;;;;;;;;;20.10;99.90;;;;;;5071092;28;19909;-75
2022/08/05 07:50:46;;;;;;;;;;;20.10;99.90;;;;;;5071051;28;19908;-76
2022/08/05 07:53:11;;;;;;;;;;;20.00;99.90;;;;;;5071093;28;19946;-76
2022/08/05 07:55:37;;;;;;;;;;;19.90;99.90;;;;;;5071020;28;19958;-76
2022/08/05 07:58:04;;;;;;;;;;;19.80;99.90;;;;;;5071226;28;19908;-76
2022/08/05 08:00:29;;;;;;;;;;;19.70;99.90;;;;;;5071196;28;19951;-76
2022/08/05 08:02:55;;;;;;;;;;;19.70;99.90;;;;;;5070957;28;20387;-76
2022/08/05 08:05:20;;;;;;;;;;;19.60;99.90;;;;;;5071059;28;20280;-76
2022/08/05 08:07:46;;;;;;;;;;;19.60;99.90;;;;;;5070722;28;19916;-76
2022/08/05 08:10:12;;;;;;;;;;;19.70;99.90;;;;;;5070606;28;19908;-76
2022/08/05 08:12:38;;;;;;;;;;;19.60;99.90;;;;;;5071069;28;19975;-76
2022/08/05 08:15:04;;;;;;;;;;;19.70;99.90;;;;;;5070877;28;20017;-76
2022/08/05 08:17:31;;;;;;;;;;;19.60;99.90;;;;;;5070714;28;19913;-76
2022/08/05 08:19:56;;;;;;;;;;;19.60;99.90;;;;;;5070560;28;19909;-76
2022/08/05 08:22:25;;;;;;;;;;;19.50;99.90;;;;;;5070245;28;19919;-76
2022/08/05 08:24:51;;;;;;;;;;;19.50;99.90;;;;;;5070725;28;19954;-76
2022/08/05 08:27:17;;;;;;;;;;;19.60;99.90;;;;;;5070566;28;19909;-76
2022/08/05 08:29:42;;;;;;;;;;;19.60;99.90;;;;;;5070716;28;19920;-76
2022/08/05 08:32:08;;;;;;;;;;;19.60;99.90;;;;;;5070689;28;19912;-76
2022/08/05 08:34:34;;;;;;;;;;;19.60;99.90;;;;;;5070869;28;19970;-77
2022/08/05 08:36:59;;;;;;;;;;;19.60;99.90;;;;;;5071735;28;19909;-77
2022/08/05 08:39:25;;;;;;;;;;;19.60;99.90;;;;;;5071858;28;19908;-77
2022/08/05 08:41:53;;;;;;;;;;;19.70;99.90;;;;;;5071535;28;20378;-77
2022/08/05 08:44:19;;;;;;;;;;;19.70;99.90;;;;;;5072012;28;19908;-79
2022/08/05 08:46:46;;;;;;;;;;;19.60;99.90;;;;;;5071401;28;19912;-77
2022/08/05 08:49:15;;;;;;;;;;;19.60;99.90;;;;;;5071447;28;20360;-78
2022/08/05 08:51:44;;;;;;;;;;;19.70;99.90;;;;;;5071662;28;19938;-78
2022/08/05 08:54:09;;;;;;;;;;;19.70;99.90;;;;;;5074915;28;19917;-77
2022/08/05 08:56:38;;;;;;;;;;;19.60;99.90;;;;;;5081292;28;19919;-77
2022/08/05 08:59:03;;;;;;;;;;;19.60;99.90;;;;;;5075319;28;20363;-77
2022/08/05 09:01:30;;;;;;;;;;;19.60;99.90;;;;;;5074468;28;19915;-78
2022/08/05 09:03:56;;;;;;;;;;;19.60;99.90;;;;;;5076153;28;20338;-78
2022/08/05 09:06:22;;;;;;;;;;;19.60;99.90;;;;;;5073723;28;19961;-78
2022/08/05 09:08:48;;;;;;;;;;;19.60;99.90;;;;;;5071974;28;19912;-78
2022/08/05 09:11:14;;;;;;;;;;;19.60;99.90;;;;;;5072082;28;20192;-78
2022/08/05 09:13:40;;;;;;;;;;;19.50;99.90;;;;;;5082077;28;19908;-78
2022/08/05 09:16:08;;;;;;;;;;;19.60;99.90;;;;;;5071399;28;19968;-78
2022/08/05 09:18:35;;;;;;;;;;;19.50;99.90;;;;;;5071421;28;19916;-78
2022/08/05 09:21:01;;;;;;;;;;;19.50;99.90;;;;;;5071685;28;20314;-77
2022/08/05 09:23:26;;;;;;;;;;;19.40;99.90;;;;;;5071146;28;19912;-78
2022/08/05 09:26:04;;;;;;;;;;;19.40;99.90;;;;;;5071134;28;19908;-76
2022/08/05 09:28:31;;;;;;;;;;;19.50;99.90;;;;;;5070275;28;19915;-75
2022/08/05 09:30:59;;;;;;;;;;;19.50;99.90;;;;;;5070283;28;19913;-76
2022/08/05 09:33:25;;;;;;;;;;;19.50;99.90;;;;;;5073581;28;19909;-75
2022/08/05 09:35:52;;;;;;;;;;;19.70;99.90;;;;;;5074110;28;19916;-76
2022/08/05 09:38:18;;;;;;;;;;;19.70;99.90;;;;;;5073966;28;20004;-75
2022/08/05 09:40:44;;;;;;;;;;;19.90;99.90;;;;;;5074047;28;19919;-75
2022/08/05 09:43:24;;;;;;;;;;;20.10;99.90;;;;;;5074045;28;19917;-76
2022/08/05 09:45:50;;;;;;;;;;;20.10;99.90;;;;;;5073880;28;19912;-76
2022/08/05 09:48:25;;;;;;;;;;;20.10;99.90;;;;;;5073862;28;19908;-75
2022/08/05 09:50:52;;;;;;;;;;;20.20;99.90;;;;;;5073976;28;19917;-75
2022/08/05 09:53:18;;;;;;;;;;;20.20;99.90;;;;;;5073741;28;19923;-76
2022/08/05 09:55:44;;;;;;;;;;;20.10;99.90;;;;;;5073734;28;19908;-75
2022/08/05 09:58:10;;;;;;;;;;;20.10;99.90;;;;;;5073706;28;20356;-75
2022/08/05 10:00:36;;;;;;;;;;;20.10;99.90;;;;;;5073753;28;20268;-76
2022/08/05 10:03:07;;;;;;;;;;;20.20;99.90;;;;;;5073600;28;19919;-75
2022/08/05 10:05:34;;;;;;;;;;;20.30;99.90;;;;;;5073687;28;20030;-76
2022/08/05 10:08:01;;;;;;;;;;;20.20;99.90;;;;;;5073401;28;19912;-76
2022/08/05 10:10:31;;;;;;;;;;;20.10;99.90;;;;;;5073513;28;19991;-75
2022/08/05 10:12:58;;;;;;;;;;;20.20;99.90;;;;;;5073468;28;20006;-76
2022/08/05 10:15:30;;;;;;;;;;;20.40;99.90;;;;;;5073740;28;20359;-75
2022/08/05 10:18:02;;;;;;;;;;;20.50;99.90;;;;;;5073223;28;19915;-75
2022/08/05 10:20:27;;;;;;;;;;;20.40;99.90;;;;;;5073446;28;19912;-75
2022/08/05 10:22:53;;;;;;;;;;;20.60;99.90;;;;;;5073194;28;20268;-76
2022/08/05 10:25:19;;;;;;;;;;;20.70;99.90;;;;;;5073566;28;20364;-76
2022/08/05 10:27:45;;;;;;;;;;;20.90;99.90;;;;;;5073043;28;20454;-76
2022/08/05 10:30:11;;;;;;;;;;;21.10;99.90;;;;;;5072484;28;19914;-75
2022/08/05 10:32:37;;;;;;;;;;;21.50;99.90;;;;;;5080315;28;20372;-76
2022/08/05 10:35:03;;;;;;;;;;;21.90;99.90;;;;;;5093082;28;19912;-75
2022/08/05 10:37:30;;;;;;;;;;;22.10;99.90;;;;;;5073512;28;19946;-76
2022/08/05 10:39:58;;;;;;;;;;;22.60;99.90;;;;;;5072794;28;19912;-76
2022/08/05 10:42:26;;;;;;;;;;;22.90;99.90;;;;;;5072615;28;19919;-76
2022/08/05 10:44:53;;;;;;;;;;;22.90;99.90;;;;;;5076097;28;20042;-76
2022/08/05 10:47:19;;;;;;;;;;;23.40;99.90;;;;;;5092881;28;19915;-76
2022/08/05 10:50:05;;;;;;;;;;;23.70;99.90;;;;;;5092926;28;19908;-76
2022/08/05 10:52:36;;;;;;;;;;;24.50;99.90;;;;;;5092776;28;20375;-76
2022/08/05 10:55:06;;;;;;;;;;;24.10;99.90;;;;;;5092637;28;19908;-76
2022/08/05 10:57:32;;;;;;;;;;;24.00;99.90;;;;;;5092677;28;19908;-76
2022/08/05 11:00:07;;;;;;;;;;;24.10;99.90;;;;;;5092696;28;19916;-77
2022/08/05 11:02:33;;;;;;;;;;;24.30;99.90;;;;;;5092466;28;19912;-77
2022/08/05 11:05:02;;;;;;;;;;;24.70;99.90;;;;;;5092172;28;19912;-76
2022/08/05 11:07:28;;;;;;;;;;;24.80;99.90;;;;;;5092378;28;19908;-75
2022/08/05 11:09:54;;;;;;;;;;;25.30;99.90;;;;;;5092339;28;20299;-77
2022/08/05 11:12:22;;;;;;;;;;;25.50;99.90;;;;;;5092350;28;19908;-76
2022/08/05 11:15:03;;;;;;;;;;;25.70;99.90;;;;;;5092188;28;19919;-77
2022/08/05 11:17:31;;;;;;;;;;;25.80;99.90;;;;;;5092168;28;19915;-77
2022/08/05 11:19:58;;;;;;;;;;;25.60;99.90;;;;;;5091174;28;20180;-77
2022/08/05 11:22:46;;;;;;;;;;;25.50;99.90;;;;;;5092328;28;19912;-77
2022/08/05 11:25:30;;;;;;;;;;;25.60;99.90;;;;;;5092163;28;19914;-77
2022/08/05 11:28:08;;;;;;;;;;;25.40;99.90;;;;;;5092314;28;19909;-77
2022/08/05 11:30:53;;;;;;;;;;;25.60;99.90;;;;;;5091973;28;20356;-77
2022/08/05 11:33:37;;;;;;;;;;;25.70;99.90;;;;;;5092211;28;19908;-77
2022/08/05 11:36:07;;;;;;;;;;;25.80;99.90;;;;;;5091750;28;19991;-76
2022/08/05 11:38:42;;;;;;;;;;;25.60;99.90;;;;;;5091955;28;19909;-76
2022/08/05 11:41:20;;;;;;;;;;;25.50;99.90;;;;;;5091944;28;19915;-77
2022/08/05 11:43:59;;;;;;;;;;;25.60;99.90;;;;;;5092064;28;20299;-77
2022/08/05 11:46:32;;;;;;;;;;;25.70;99.90;;;;;;5092910;28;20291;-77
2022/08/05 11:48:58;;;;;;;;;;;25.80;99.90;;;;;;5091726;28;19915;-76
2022/08/05 11:51:25;;;;;;;;;;;26.00;99.90;;;;;;5089595;28;19912;-77
2022/08/05 11:53:51;;;;;;;;;;;26.00;99.90;;;;;;5085217;28;19920;-76
2022/08/05 11:56:17;;;;;;;;;;;25.90;99.90;;;;;;5091379;28;20374;-78
2022/08/05 11:58:44;;;;;;;;;;;25.90;99.90;;;;;;5091979;28;19915;-78
2022/08/05 12:01:13;;;;;;;;;;;25.90;99.90;;;;;;5086137;28;19916;-77
2022/08/05 12:03:43;;;;;;;;;;;25.80;99.90;;;;;;5091686;28;19961;-76
2022/08/05 12:06:09;;;;;;;;;;;25.90;99.90;;;;;;5091659;28;19908;-76
2022/08/05 12:08:41;;;;;;;;;;;25.60;99.90;;;;;;5082971;28;19938;-76
2022/08/05 12:11:07;;;;;;;;;;;25.50;99.90;;;;;;5091556;28;19909;-75
2022/08/05 12:13:33;;;;;;;;;;;25.90;99.90;;;;;;5091484;28;19909;-76
2022/08/05 12:15:59;;;;;;;;;;;26.10;99.90;;;;;;5091439;28;19909;-76
2022/08/05 12:18:32;;;;;;;;;;;26.00;99.90;;;;;;5091432;28;19915;-75
2022/08/05 12:21:08;;;;;;;;;;;25.80;99.90;;;;;;5091576;28;19908;-75
2022/08/05 12:23:33;;;;;;;;;;;26.20;99.90;;;;;;5091551;28;19946;-76
2022/08/05 12:25:59;;;;;;;;;;;26.30;99.90;;;;;;5091412;28;19908;-76
2022/08/05 12:28:34;;;;;;;;;;;26.50;99.90;;;;;;5091323;28;19940;-76
2022/08/05 12:31:00;;;;;;;;;;;26.70;99.90;;;;;;5091557;28;19991;-76
2022/08/05 12:33:26;;;;;;;;;;;27.00;99.90;;;;;;5091352;28;20394;-76
2022/08/05 12:35:53;;;;;;;;;;;27.30;99.90;;;;;;5091167;28;19999;-76
2022/08/05 12:38:20;;;;;;;;;;;27.30;99.90;;;;;;5091366;28;20390;-75
2022/08/05 12:40:45;;;;;;;;;;;27.10;99.90;;;;;;5091620;28;19958;-75
2022/08/05 12:43:11;;;;;;;;;;;27.00;99.90;;;;;;5091309;28;19955;-76
2022/08/05 12:45:37;;;;;;;;;;;26.90;99.90;;;;;;5091202;28;20393;-75
2022/08/05 12:48:15;;;;;;;;;;;27.00;99.90;;;;;;5091347;28;20370;-76
2022/08/05 12:50:40;;;;;;;;;;;27.30;99.90;;;;;;5091642;28;20383;-76
2022/08/05 12:53:06;;;;;;;;;;;27.50;99.90;;;;;;5091171;28;19966;-75
2022/08/05 12:55:32;;;;;;;;;;;27.30;99.90;;;;;;5091693;28;19976;-75
2022/08/05 12:57:58;;;;;;;;;;;27.40;99.90;;;;;;5090979;28;19908;-76
2022/08/05 13:00:24;;;;;;;;;;;27.40;99.90;;;;;;5091165;28;19908;-76
2022/08/05 13:02:55;;;;;;;;;;;27.20;99.90;;;;;;5091270;28;20277;-76
2022/08/05 13:05:21;;;;;;;;;;;27.30;99.90;;;;;;5091144;28;19908;-76
2022/08/05 13:07:46;;;;;;;;;;;27.20;99.90;;;;;;5093312;28;19908;-76
2022/08/05 13:10:13;;;;;;;;;;;27.30;99.90;;;;;;5095303;28;20275;-75
2022/08/05 13:12:40;;;;;;;;;;;27.20;99.90;;;;;;5095169;28;20007;-76
2022/08/05 13:15:08;;;;;;;;;;;26.90;99.90;;;;;;5094922;28;19916;-76
2022/08/05 13:17:34;;;;;;;;;;;26.60;99.90;;;;;;5095039;28;19927;-75
2022/08/05 13:20:01;;;;;;;;;;;26.70;99.90;;;;;;5094899;28;19919;-75
2022/08/05 13:22:27;;;;;;;;;;;26.60;99.90;;;;;;5095024;28;19934;-77
2022/08/05 13:24:53;;;;;;;;;;;26.50;99.90;;;;;;5095101;28;19983;-75
2022/08/05 13:27:48;;;;;;;;;;;26.80;99.90;;;;;;5094845;28;19951;-75
2022/08/05 13:30:14;;;;;;;;;;;27.10;99.90;;;;;;5098607;28;19912;-76
2022/08/05 13:32:40;;;;;;;;;;;27.50;99.90;;;;;;5094925;28;19908;-76
2022/08/05 13:35:06;;;;;;;;;;;27.70;99.90;;;;;;5094902;28;19951;-76
2022/08/05 13:37:32;;;;;;;;;;;28.00;99.90;;;;;;5094559;28;19908;-75
2022/08/05 13:39:58;;;;;;;;;;;28.10;99.90;;;;;;5094593;28;20372;-76
2022/08/05 13:42:23;;;;;;;;;;;28.10;99.90;;;;;;5094542;28;19962;-75
2022/08/05 13:44:50;;;;;;;;;;;28.00;99.90;;;;;;5094728;28;19908;-76
2022/08/05 13:47:16;;;;;;;;;;;27.90;99.90;;;;;;5094312;28;19958;-75
2022/08/05 13:49:41;;;;;;;;;;;27.80;99.90;;;;;;5094626;28;19956;-76
2022/08/05 13:52:10;;;;;;;;;;;27.50;99.90;;;;;;5094348;28;20012;-75
2022/08/05 13:54:36;;;;;;;;;;;27.30;99.90;;;;;;5094331;28;19908;-76
2022/08/05 13:57:01;;;;;;;;;;;26.80;99.90;;;;;;5093950;28;19953;-76
2022/08/05 13:59:27;;;;;;;;;;;26.40;99.90;;;;;;5094157;28;19916;-75
2022/08/05 14:01:56;;;;;;;;;;;25.90;99.90;;;;;;5094118;28;19908;-76
2022/08/05 14:07:06;;;;;;;;;;;24.80;99.90;;;;;;5095511;28;19915;-76
2022/08/05 14:09:33;;;;;;;;;;;24.50;99.90;;;;;;5094037;28;20291;-76
2022/08/05 14:11:59;;;;;;;;;;;24.40;99.90;;;;;;5093992;28;19914;-76
2022/08/05 14:14:24;;;;;;;;;;;24.30;99.90;;;;;;5093798;28;20007;-76
2022/08/05 14:16:50;;;;;;;;;;;24.40;99.90;;;;;;5093647;28;19961;-76
2022/08/05 14:19:16;;;;;;;;;;;24.60;99.90;;;;;;5092854;28;20375;-75
2022/08/05 14:21:41;;;;;;;;;;;24.90;99.90;;;;;;5093895;28;19938;-76
2022/08/05 14:24:09;;;;;;;;;;;25.20;99.90;;;;;;5093821;28;20375;-76